Rocky Ridge, Missouri
Current Conditions -  °F | °C
As of 3:55 AM on Tuesday 21 Oct 2014 (Local Time) from KSAR Reporting Station
Clear Clear  
Wind Chill: 50°   Ceiling: Unl
Heat Index: 50°   Visibility: 10mi
Dew Point: 43°   Wind: 3mph
Humidity: 78%   Direction: 250°WSW
Pressure: 30.04"   Gusts: NA
Location:  37.9762°N, 90.0499°W
Report Text: KSAR 210855Z AUTO 25003KT 10SM CLR 10/06 A3004 RMK AO2 T01000063
Loading
Personal Weather Stations






























Interactive Weather Map
Tropical Storm Tracking
New forecast layout! Learn more

10-Day Weather Forecast

Advertisements
Track Severe Weather on mobile